createdAt,value
2019-04-23T00:00:21.924Z,12.90
2019-04-23T00:02:58.883Z,12.80
2019-04-23T00:08:11.475Z,12.80
2019-04-23T00:10:34.835Z,12.80
2019-04-23T00:13:09.052Z,12.70
2019-04-23T00:15:51.720Z,12.70
2019-04-23T00:21:18.489Z,12.90
2019-04-23T00:23:59.550Z,12.80
2019-04-23T00:26:24.120Z,12.70
2019-04-23T00:33:55.604Z,12.50
2019-04-23T00:36:25.886Z,12.40
2019-04-23T00:38:50.129Z,12.50
2019-04-23T00:41:25.089Z,12.60
2019-04-23T00:44:01.606Z,12.60
2019-04-23T00:46:35.311Z,12.60
2019-04-23T00:49:05.885Z,12.70
2019-04-23T00:51:38.006Z,12.80
2019-04-23T00:54:06.440Z,12.60
2019-04-23T00:59:12.457Z,12.50
2019-04-23T01:01:50.233Z,12.30
2019-04-23T01:04:39.721Z,12.20
2019-04-23T01:07:24.304Z,12.20
2019-04-23T01:10:00.875Z,12.30
2019-04-23T01:12:42.074Z,12.30
2019-04-23T01:15:04.730Z,12.20
2019-04-23T01:20:10.926Z,12.20
2019-04-23T01:22:31.735Z,12.20
2019-04-23T01:25:42.678Z,12.40
2019-04-23T01:33:47.070Z,12.00
2019-04-23T01:39:32.895Z,12.00
2019-04-23T01:42:08.481Z,12.10
2019-04-23T01:44:42.447Z,12.10
2019-04-23T01:47:11.582Z,12.00
2019-04-23T01:49:44.953Z,12.00
2019-04-23T01:52:27.810Z,12.00
2019-04-23T01:54:52.014Z,12.00
2019-04-23T01:57:23.293Z,11.90
2019-04-23T01:59:58.432Z,12.00
2019-04-23T02:02:31.000Z,11.90
2019-04-23T02:05:09.002Z,11.90
2019-04-23T02:07:44.283Z,11.90
2019-04-23T02:12:55.745Z,11.70
2019-04-23T02:18:31.853Z,11.70
2019-04-23T02:21:07.793Z,11.80
2019-04-23T02:23:50.866Z,11.70
2019-04-23T02:26:25.769Z,11.70
2019-04-23T02:28:53.268Z,11.90
2019-04-23T02:36:29.234Z,11.50
2019-04-23T02:44:38.982Z,11.50
2019-04-23T02:47:17.475Z,11.40
2019-04-23T02:50:02.880Z,11.50
2019-04-23T02:57:26.308Z,11.40
2019-04-23T03:00:07.867Z,11.40
2019-04-23T03:02:56.555Z,11.40
2019-04-23T03:05:11.553Z,11.40
2019-04-23T03:07:47.505Z,11.40
2019-04-23T03:10:08.235Z,11.40
2019-04-23T03:15:45.283Z,11.30
2019-04-23T03:21:42.598Z,11.40
2019-04-23T03:26:51.588Z,11.40
2019-04-23T03:29:10.575Z,11.30
2019-04-23T03:33:55.508Z,11.40
2019-04-23T03:39:18.746Z,11.40
2019-04-23T03:47:13.881Z,11.20
2019-04-23T03:49:48.530Z,11.10
2019-04-23T03:54:45.557Z,11.10
2019-04-23T03:59:55.236Z,11.10
2019-04-23T04:04:45.173Z,11.00
2019-04-23T04:07:55.860Z,11.10
2019-04-23T04:09:51.807Z,11.00
2019-04-23T04:12:40.008Z,11.00
2019-04-23T04:15:41.312Z,10.90
2019-04-23T04:20:24.517Z,10.80
2019-04-23T04:23:16.755Z,10.70
2019-04-23T04:25:39.246Z,10.90
2019-04-23T04:28:17.614Z,10.90
2019-04-23T04:30:54.227Z,10.80
2019-04-23T04:36:09.496Z,10.90
2019-04-23T04:43:31.770Z,11.00
2019-04-23T04:46:21.254Z,10.90
2019-04-23T04:48:32.988Z,11.10
2019-04-23T04:51:13.271Z,10.90
2019-04-23T04:56:16.030Z,11.10
2019-04-23T04:58:40.715Z,11.20
2019-04-23T05:01:08.275Z,11.10
2019-04-23T05:03:36.279Z,11.20
2019-04-23T05:08:48.909Z,11.40
2019-04-23T05:11:17.354Z,11.40
2019-04-23T05:16:13.914Z,11.50
2019-04-23T05:21:26.791Z,11.50
2019-04-23T05:24:23.224Z,11.60
2019-04-23T05:26:33.346Z,11.70
2019-04-23T05:31:42.738Z,12.00
2019-04-23T05:34:11.190Z,12.00
2019-04-23T05:36:52.069Z,12.10
2019-04-23T05:39:21.524Z,12.20
2019-04-23T05:41:42.024Z,12.20
2019-04-23T05:46:45.922Z,12.80
2019-04-23T05:51:54.284Z,12.50
2019-04-23T05:54:20.782Z,12.60
2019-04-23T05:56:46.891Z,12.50
2019-04-23T06:01:55.629Z,12.30
2019-04-23T06:04:19.548Z,12.50
2019-04-23T06:11:52.659Z,12.80
2019-04-23T06:14:19.050Z,12.90
2019-04-23T06:16:51.146Z,12.80
2019-04-23T06:24:33.001Z,13.20
2019-04-23T06:27:08.719Z,13.40
2019-04-23T06:29:39.384Z,13.30
2019-04-23T06:32:06.400Z,13.50
2019-04-23T06:34:36.378Z,13.50
2019-04-23T06:37:11.033Z,13.40
2019-04-23T06:39:41.283Z,13.60
2019-04-23T06:42:23.494Z,13.40
2019-04-23T06:44:45.737Z,13.60
2019-04-23T06:47:16.800Z,13.60
2019-04-23T06:52:21.712Z,13.60
2019-04-23T06:57:41.037Z,14.20
2019-04-23T06:59:54.752Z,13.90
2019-04-23T07:05:16.182Z,14.30
2019-04-23T07:12:59.359Z,14.50
2019-04-23T07:17:55.559Z,14.60
2019-04-23T07:20:37.775Z,14.60
2019-04-23T07:23:05.026Z,15.00
2019-04-23T07:25:35.878Z,15.00
2019-04-23T07:28:08.669Z,15.00
2019-04-23T07:30:33.171Z,15.00
2019-04-23T07:33:07.351Z,15.00
2019-04-23T07:35:41.926Z,15.00
2019-04-23T07:38:33.604Z,15.20
2019-04-23T07:40:46.649Z,15.20
2019-04-23T07:44:02.707Z,15.50
2019-04-23T07:46:38.323Z,15.90
2019-04-23T07:48:56.477Z,16.10
2019-04-23T07:51:29.337Z,16.40
2019-04-23T07:54:03.769Z,16.90
2019-04-23T07:56:31.513Z,17.40
2019-04-23T07:59:07.353Z,17.50
2019-04-23T08:01:34.789Z,17.40
2019-04-23T08:04:01.333Z,17.30
2019-04-23T08:06:31.990Z,17.50
2019-04-23T08:09:03.673Z,17.30
2019-04-23T08:11:49.292Z,17.50
2019-04-23T08:14:06.530Z,17.20
2019-04-23T08:16:43.862Z,17.50
2019-04-23T08:19:08.072Z,17.80
2019-04-23T08:21:32.063Z,18.20
2019-04-23T08:24:14.367Z,18.00
2019-04-23T08:27:16.370Z,18.10
2019-04-23T08:29:56.064Z,18.10
2019-04-23T08:32:19.556Z,18.20
2019-04-23T08:34:52.346Z,18.00
2019-04-23T08:37:48.900Z,17.60
2019-04-23T08:39:52.515Z,17.60
2019-04-23T08:42:42.843Z,17.70
2019-04-23T08:47:40.275Z,18.00
2019-04-23T08:50:15.457Z,18.10
2019-04-23T08:52:43.028Z,18.10
2019-04-23T08:55:13.815Z,18.40
2019-04-23T08:57:43.171Z,18.30
2019-04-23T09:00:18.693Z,18.30
2019-04-23T09:03:11.225Z,18.50
2019-04-23T09:05:52.645Z,18.20
2019-04-23T09:08:19.218Z,18.60
2019-04-23T09:10:51.773Z,18.70
2019-04-23T09:13:40.209Z,18.80
2019-04-23T09:15:51.096Z,18.60
2019-04-23T09:18:22.975Z,19.20
2019-04-23T09:20:49.666Z,19.20
2019-04-23T09:23:30.886Z,19.60
2019-04-23T09:25:53.543Z,19.60
2019-04-23T09:28:33.216Z,19.80
2019-04-23T09:31:08.649Z,19.80
2019-04-23T09:33:45.194Z,19.80
2019-04-23T09:36:08.260Z,20.00
2019-04-23T09:38:39.622Z,19.70
2019-04-23T09:44:09.464Z,19.70
2019-04-23T09:46:48.304Z,19.60
2019-04-23T09:49:20.711Z,20.00
2019-04-23T09:51:52.961Z,20.60
2019-04-23T09:57:17.662Z,20.90
2019-04-23T09:59:48.950Z,20.50
2019-04-23T10:02:20.065Z,20.30
2019-04-23T10:04:50.568Z,20.30
2019-04-23T10:07:16.409Z,20.80
2019-04-23T10:09:40.536Z,20.90
2019-04-23T10:12:09.515Z,21.20
2019-04-23T10:14:38.754Z,21.60
2019-04-23T10:17:08.447Z,21.70
2019-04-23T10:19:37.035Z,21.60
2019-04-23T10:22:07.108Z,21.00
2019-04-23T10:24:36.985Z,21.00
2019-04-23T10:27:08.484Z,21.80
2019-04-23T10:29:38.592Z,22.00
2019-04-23T10:32:07.514Z,22.10
2019-04-23T10:34:48.139Z,22.40
2019-04-23T10:37:07.271Z,22.10
2019-04-23T10:39:39.844Z,22.40
2019-04-23T10:42:09.950Z,22.90
2019-04-23T10:44:46.631Z,23.20
2019-04-23T10:48:06.721Z,23.40
2019-04-23T10:53:18.775Z,23.00
2019-04-23T10:55:52.771Z,22.90
2019-04-23T10:58:16.884Z,22.70
2019-04-23T11:06:17.658Z,22.80
2019-04-23T11:11:14.606Z,23.50
2019-04-23T11:14:04.925Z,24.10
2019-04-23T11:16:55.683Z,24.20
2019-04-23T11:21:37.910Z,23.80
2019-04-23T11:24:12.697Z,24.20
2019-04-23T11:29:28.020Z,25.10
2019-04-23T11:31:58.356Z,25.40
2019-04-23T11:37:35.749Z,24.40
2019-04-23T11:39:53.914Z,24.90
2019-04-23T11:42:19.484Z,24.80
2019-04-23T11:50:43.106Z,24.70
2019-04-23T11:55:29.021Z,25.60
2019-04-23T12:01:36.148Z,25.10
2019-04-23T12:03:14.161Z,24.80
2019-04-23T12:08:52.000Z,25.50
2019-04-23T12:14:57.693Z,26.90
2019-04-23T12:22:29.829Z,26.00
2019-04-23T12:25:36.727Z,26.00
2019-04-23T12:27:59.228Z,26.10
2019-04-23T12:30:39.637Z,26.40
2019-04-23T12:33:03.264Z,26.20
2019-04-23T12:35:33.894Z,25.50
2019-04-23T12:43:12.718Z,25.60
2019-04-23T12:45:37.531Z,25.70
2019-04-23T12:48:23.818Z,24.90
2019-04-23T12:50:50.171Z,24.50
2019-04-23T12:53:10.531Z,23.90
2019-04-23T12:55:40.042Z,23.90
2019-04-23T13:00:40.017Z,24.20
2019-04-23T13:03:10.423Z,24.20
2019-04-23T13:05:33.986Z,24.10
2019-04-23T13:08:29.018Z,23.90
2019-04-23T13:10:41.837Z,24.20
2019-04-23T13:16:14.615Z,23.80
2019-04-23T13:18:26.981Z,23.80
2019-04-23T13:20:43.614Z,24.00
2019-04-23T13:23:21.929Z,23.70
2019-04-23T13:28:27.683Z,24.10
2019-04-23T13:33:37.942Z,24.30
2019-04-23T13:41:08.403Z,24.70
2019-04-23T13:43:36.063Z,24.90
2019-04-23T13:49:08.033Z,24.50
2019-04-23T13:51:43.494Z,24.40
2019-04-23T13:59:16.633Z,25.00
2019-04-23T14:01:54.439Z,24.50
2019-04-23T14:04:21.320Z,25.00
2019-04-23T14:06:46.411Z,25.50
2019-04-23T14:09:19.952Z,25.70
2019-04-23T14:11:38.904Z,25.50
2019-04-23T14:14:36.331Z,25.60
2019-04-23T14:17:04.507Z,25.70
2019-04-23T14:19:16.501Z,25.70
2019-04-23T14:22:12.894Z,25.30
2019-04-23T14:24:32.599Z,24.60
2019-04-23T14:26:58.197Z,24.40
2019-04-23T14:29:31.788Z,23.70
2019-04-23T14:32:07.313Z,23.00
2019-04-23T14:34:30.463Z,22.70
2019-04-23T14:37:07.480Z,22.80
2019-04-23T14:39:35.992Z,22.80
2019-04-23T14:42:06.917Z,22.60
2019-04-23T14:44:55.646Z,22.20
2019-04-23T14:47:09.055Z,22.10
2019-04-23T14:49:54.042Z,21.70
2019-04-23T14:52:09.335Z,21.70
2019-04-23T14:55:19.162Z,21.40
2019-04-23T14:59:41.714Z,21.50
2019-04-23T15:02:13.772Z,21.50
2019-04-23T15:04:43.801Z,21.40
2019-04-23T15:07:15.686Z,21.30
2019-04-23T15:09:53.188Z,21.30
2019-04-23T15:17:12.786Z,21.50
2019-04-23T15:22:13.526Z,21.60
2019-04-23T15:25:13.691Z,21.60
2019-04-23T15:27:59.983Z,21.50
2019-04-23T15:29:30.246Z,21.30
2019-04-23T15:32:34.875Z,21.10
2019-04-23T15:34:37.583Z,20.60
2019-04-23T15:37:41.421Z,20.60
2019-04-23T15:39:47.575Z,20.40
2019-04-23T15:44:48.743Z,20.30
2019-04-23T15:47:20.084Z,20.10
2019-04-23T15:49:56.730Z,19.90
2019-04-23T15:52:39.254Z,19.80
2019-04-23T15:54:48.335Z,19.70
2019-04-23T15:57:18.162Z,19.90
2019-04-23T15:59:48.316Z,19.90
2019-04-23T16:01:48.242Z,19.60
2019-04-23T16:04:19.688Z,20.00
2019-04-23T16:06:47.851Z,19.90
2019-04-23T16:09:46.186Z,19.90
2019-04-23T16:12:13.171Z,19.80
2019-04-23T16:14:53.674Z,19.80
2019-04-23T16:17:18.749Z,19.70
2019-04-23T16:20:00.235Z,19.60
2019-04-23T16:22:36.615Z,19.80
2019-04-23T16:25:03.283Z,19.70
2019-04-23T16:27:16.991Z,19.70
2019-04-23T16:30:09.694Z,19.70
2019-04-23T16:35:08.827Z,19.30
2019-04-23T16:37:26.488Z,19.30
2019-04-23T16:40:01.463Z,19.40
2019-04-23T16:42:30.927Z,19.40
2019-04-23T16:45:05.971Z,19.50
2019-04-23T16:47:28.187Z,19.20
2019-04-23T16:50:05.086Z,19.30
2019-04-23T16:52:27.390Z,19.30
2019-04-23T16:55:01.988Z,19.30
2019-04-23T16:57:35.468Z,19.30
2019-04-23T17:02:24.514Z,19.10
2019-04-23T17:05:04.751Z,19.00
2019-04-23T17:07:24.260Z,19.00
2019-04-23T17:12:19.924Z,19.00
2019-04-23T17:15:03.388Z,18.80
2019-04-23T17:17:25.133Z,18.70
2019-04-23T17:20:14.831Z,18.50
2019-04-23T17:22:24.599Z,18.30
2019-04-23T17:25:05.553Z,18.30
2019-04-23T17:27:34.861Z,18.20
2019-04-23T17:30:06.794Z,18.10
2019-04-23T17:32:28.074Z,18.10
2019-04-23T17:35:11.318Z,18.10
2019-04-23T17:37:53.752Z,18.10
2019-04-23T17:40:15.721Z,18.10
2019-04-23T17:42:39.838Z,18.00
2019-04-23T17:45:25.420Z,17.90
2019-04-23T17:47:55.285Z,17.80
2019-04-23T17:50:27.018Z,17.80
2019-04-23T17:52:54.587Z,17.80
2019-04-23T17:55:15.470Z,17.70
2019-04-23T17:57:45.754Z,17.60
2019-04-23T18:02:55.673Z,17.20
2019-04-23T18:07:59.423Z,17.20
2019-04-23T18:12:51.446Z,16.90
2019-04-23T18:15:15.887Z,16.80
2019-04-23T18:17:59.871Z,16.90
2019-04-23T18:22:53.974Z,16.90
2019-04-23T18:25:37.390Z,16.90
2019-04-23T18:28:00.592Z,17.10
2019-04-23T18:30:40.987Z,17.00
2019-04-23T18:35:44.698Z,17.00
2019-04-23T18:38:26.103Z,16.70
2019-04-23T18:41:02.362Z,16.60
2019-04-23T18:46:02.605Z,16.50
2019-04-23T18:51:01.146Z,16.70
2019-04-23T18:58:34.453Z,16.50
2019-04-23T19:03:48.160Z,16.50
2019-04-23T19:06:29.425Z,16.80
2019-04-23T19:09:09.986Z,16.50
2019-04-23T19:11:53.504Z,16.40
2019-04-23T19:14:09.913Z,16.10
2019-04-23T19:19:09.597Z,16.10
2019-04-23T19:22:07.147Z,16.10
2019-04-23T19:27:03.544Z,16.20
2019-04-23T19:31:52.801Z,16.00
2019-04-23T19:34:29.845Z,16.10
2019-04-23T19:41:59.481Z,16.00
2019-04-23T19:44:24.497Z,16.00
2019-04-23T19:51:56.741Z,16.20
2019-04-23T19:56:55.106Z,15.80
2019-04-23T19:59:31.646Z,15.60
2019-04-23T20:02:03.330Z,15.60
2019-04-23T20:04:36.664Z,15.50
2019-04-23T20:11:55.992Z,15.60
2019-04-23T20:17:20.835Z,15.80
2019-04-23T20:19:31.670Z,15.70
2019-04-23T20:22:00.247Z,15.70
2019-04-23T20:27:06.123Z,15.70
2019-04-23T20:32:15.344Z,15.50
2019-04-23T20:37:12.650Z,15.50
2019-04-23T20:39:40.103Z,15.30
2019-04-23T20:44:57.201Z,15.00
2019-04-23T20:47:15.598Z,15.00
2019-04-23T20:49:43.185Z,15.10
2019-04-23T20:54:50.956Z,15.50
2019-04-23T21:00:02.051Z,15.00
2019-04-23T21:02:54.761Z,14.90
2019-04-23T21:07:49.022Z,15.00
2019-04-23T21:12:51.042Z,15.30
2019-04-23T21:15:12.041Z,15.20
2019-04-23T21:17:47.537Z,15.20
2019-04-23T21:20:21.226Z,15.10
2019-04-23T21:22:32.125Z,15.00
2019-04-23T21:25:01.786Z,14.80
2019-04-23T21:27:48.695Z,14.80
2019-04-23T21:30:03.821Z,14.80
2019-04-23T21:43:20.617Z,14.80
2019-04-23T21:45:50.044Z,14.70
2019-04-23T21:48:15.682Z,14.80
2019-04-23T21:53:18.393Z,14.90
2019-04-23T21:55:53.778Z,14.70
2019-04-23T21:58:19.316Z,14.50
2019-04-23T22:00:51.933Z,14.50
2019-04-23T22:03:19.543Z,14.50
2019-04-23T22:05:49.485Z,14.30
2019-04-23T22:08:05.808Z,14.20
2019-04-23T22:10:57.439Z,14.20
2019-04-23T22:13:20.638Z,14.20
2019-04-23T22:18:14.352Z,14.20
2019-04-23T22:20:56.309Z,14.20
2019-04-23T22:23:24.452Z,14.10
2019-04-23T22:25:56.476Z,14.00
2019-04-23T22:28:18.125Z,14.00
2019-04-23T22:31:14.760Z,14.00
2019-04-23T22:33:18.057Z,14.30
2019-04-23T22:38:22.659Z,13.90
2019-04-23T22:40:49.897Z,13.90
2019-04-23T22:45:59.908Z,13.80
2019-04-23T22:48:13.846Z,13.80
2019-04-23T22:50:56.707Z,13.80
2019-04-23T22:53:13.877Z,13.80
2019-04-23T22:55:57.312Z,13.70
2019-04-23T22:58:31.693Z,13.70
2019-04-23T23:00:55.278Z,13.70
2019-04-23T23:03:27.691Z,13.90
2019-04-23T23:10:57.513Z,13.70
2019-04-23T23:13:35.442Z,13.70
2019-04-23T23:16:03.517Z,13.70
2019-04-23T23:18:28.060Z,13.40
2019-04-23T23:23:29.769Z,13.20
2019-04-23T23:26:06.706Z,13.10
2019-04-23T23:28:28.673Z,13.00
2019-04-23T23:31:04.093Z,13.00
2019-04-23T23:36:00.134Z,12.80
2019-04-23T23:38:33.648Z,12.90
2019-04-23T23:41:12.327Z,12.80
2019-04-23T23:46:15.223Z,12.80
2019-04-23T23:48:29.161Z,12.70
2019-04-23T23:51:18.825Z,12.70
2019-04-23T23:53:42.840Z,12.70
2019-04-23T23:56:04.829Z,12.70
2019-04-23T23:58:41.095Z,12.60
